sensor_id;sensor_type;location;lat;lon;timestamp;temperature;humidity
59041;DHT22;44825;53.200;6.448;2022-08-06T00:01:55;14.70;99.40
59041;DHT22;44825;53.200;6.448;2022-08-06T00:04:23;14.60;99.40
59041;DHT22;44825;53.200;6.448;2022-08-06T00:06:50;14.60;99.40
59041;DHT22;44825;53.200;6.448;2022-08-06T00:09:17;14.60;99.50
59041;DHT22;44825;53.200;6.448;2022-08-06T00:11:45;14.60;99.60
59041;DHT22;44825;53.200;6.448;2022-08-06T00:14:13;14.50;99.60
59041;DHT22;44825;53.200;6.448;2022-08-06T00:16:41;14.50;99.70
59041;DHT22;44825;53.200;6.448;2022-08-06T00:19:08;14.50;99.80
59041;DHT22;44825;53.200;6.448;2022-08-06T00:21:35;14.50;99.80
59041;DHT22;44825;53.200;6.448;2022-08-06T00:24:03;14.50;99.90
59041;DHT22;44825;53.200;6.448;2022-08-06T00:26:30;14.50;99.90
59041;DHT22;44825;53.200;6.448;2022-08-06T00:28:58;14.50;99.90
59041;DHT22;44825;53.200;6.448;2022-08-06T00:31:26;14.50;99.90
59041;DHT22;44825;53.200;6.448;2022-08-06T00:33:54;14.50;99.90
59041;DHT22;44825;53.200;6.448;2022-08-06T00:36:22;14.50;99.90
59041;DHT22;44825;53.200;6.448;2022-08-06T00:38:49;14.40;99.90
59041;DHT22;44825;53.200;6.448;2022-08-06T00:41:18;14.40;99.90
59041;DHT22;44825;53.200;6.448;2022-08-06T00:43:45;14.40;99.90
59041;DHT22;44825;53.200;6.448;2022-08-06T00:46:13;14.30;99.90
59041;DHT22;44825;53.200;6.448;2022-08-06T00:48:41;14.20;99.90
59041;DHT22;44825;53.200;6.448;2022-08-06T00:51:09;14.20;99.90
59041;DHT22;44825;53.200;6.448;2022-08-06T00:53:36;14.20;99.90
59041;DHT22;44825;53.200;6.448;2022-08-06T00:56:04;14.20;99.90
59041;DHT22;44825;53.200;6.448;2022-08-06T00:58:33;14.20;99.90
59041;DHT22;44825;53.200;6.448;2022-08-06T01:01:00;14.20;99.90
59041;DHT22;44825;53.200;6.448;2022-08-06T01:03:28;14.20;99.90
59041;DHT22;44825;53.200;6.448;2022-08-06T01:05:56;14.10;99.90
59041;DHT22;44825;53.200;6.448;2022-08-06T01:08:24;14.10;99.90
59041;DHT22;44825;53.200;6.448;2022-08-06T01:10:51;14.10;99.90
59041;DHT22;44825;53.200;6.448;2022-08-06T01:13:18;14.00;99.90
59041;DHT22;44825;53.200;6.448;2022-08-06T01:15:50;14.00;99.90
59041;DHT22;44825;53.200;6.448;2022-08-06T01:18:23;14.00;99.90
59041;DHT22;44825;53.200;6.448;2022-08-06T01:21:06;14.00;99.90
59041;DHT22;44825;53.200;6.448;2022-08-06T01:23:51;14.00;99.90
59041;DHT22;44825;53.200;6.448;2022-08-06T01:26:29;14.00;99.90
59041;DHT22;44825;53.200;6.448;2022-08-06T01:29:02;14.10;99.90
59041;DHT22;44825;53.200;6.448;2022-08-06T01:31:34;14.10;99.90
59041;DHT22;44825;53.200;6.448;2022-08-06T01:34:07;14.10;99.90
59041;DHT22;44825;53.200;6.448;2022-08-06T01:36:39;14.10;99.90
59041;DHT22;44825;53.200;6.448;2022-08-06T01:39:09;14.10;99.90
59041;DHT22;44825;53.200;6.448;2022-08-06T01:41:41;14.00;99.90
59041;DHT22;44825;53.200;6.448;2022-08-06T01:44:14;14.00;99.90
59041;DHT22;44825;53.200;6.448;2022-08-06T01:46:44;13.90;99.90
59041;DHT22;44825;53.200;6.448;2022-08-06T01:49:14;13.90;99.90
59041;DHT22;44825;53.200;6.448;2022-08-06T01:51:44;13.90;99.90
59041;DHT22;44825;53.200;6.448;2022-08-06T01:54:13;14.00;99.90
59041;DHT22;44825;53.200;6.448;2022-08-06T01:56:41;14.00;99.90
59041;DHT22;44825;53.200;6.448;2022-08-06T01:59:14;14.00;99.90
59041;DHT22;44825;53.200;6.448;2022-08-06T02:01:43;14.00;99.90
59041;DHT22;44825;53.200;6.448;2022-08-06T02:04:13;14.00;99.90
59041;DHT22;44825;53.200;6.448;2022-08-06T02:06:45;14.00;99.90
59041;DHT22;44825;53.200;6.448;2022-08-06T02:09:18;14.00;99.90
59041;DHT22;44825;53.200;6.448;2022-08-06T02:11:51;14.00;99.90
59041;DHT22;44825;53.200;6.448;2022-08-06T02:14:23;14.00;99.90
59041;DHT22;44825;53.200;6.448;2022-08-06T02:16:54;14.00;99.90
59041;DHT22;44825;53.200;6.448;2022-08-06T02:19:23;14.00;99.90
59041;DHT22;44825;53.200;6.448;2022-08-06T02:21:51;14.00;99.90
59041;DHT22;44825;53.200;6.448;2022-08-06T02:24:21;14.00;99.90
59041;DHT22;44825;53.200;6.448;2022-08-06T02:26:51;14.00;99.90
59041;DHT22;44825;53.200;6.448;2022-08-06T02:29:21;13.90;99.90
59041;DHT22;44825;53.200;6.448;2022-08-06T02:31:50;13.90;99.90
59041;DHT22;44825;53.200;6.448;2022-08-06T02:34:19;13.90;99.90
59041;DHT22;44825;53.200;6.448;2022-08-06T02:36:52;13.90;99.90
59041;DHT22;44825;53.200;6.448;2022-08-06T02:39:24;13.90;99.90
59041;DHT22;44825;53.200;6.448;2022-08-06T02:42:00;13.80;99.90
59041;DHT22;44825;53.200;6.448;2022-08-06T02:44:38;13.80;99.90
59041;DHT22;44825;53.200;6.448;2022-08-06T02:47:11;13.80;99.90
59041;DHT22;44825;53.200;6.448;2022-08-06T02:49:43;13.80;99.90
59041;DHT22;44825;53.200;6.448;2022-08-06T02:52:16;13.80;99.90
59041;DHT22;44825;53.200;6.448;2022-08-06T02:54:50;13.80;99.90
59041;DHT22;44825;53.200;6.448;2022-08-06T02:57:23;13.70;99.90
59041;DHT22;44825;53.200;6.448;2022-08-06T02:59:54;13.80;99.90
59041;DHT22;44825;53.200;6.448;2022-08-06T03:02:29;13.70;99.90
59041;DHT22;44825;53.200;6.448;2022-08-06T03:04:57;13.70;99.90
59041;DHT22;44825;53.200;6.448;2022-08-06T03:07:27;13.70;99.90
59041;DHT22;44825;53.200;6.448;2022-08-06T03:09:56;13.80;99.90
59041;DHT22;44825;53.200;6.448;2022-08-06T03:12:25;13.70;99.90
59041;DHT22;44825;53.200;6.448;2022-08-06T03:14:54;13.70;99.90
59041;DHT22;44825;53.200;6.448;2022-08-06T03:17:23;13.80;99.90
59041;DHT22;44825;53.200;6.448;2022-08-06T03:19:51;13.80;99.90
59041;DHT22;44825;53.200;6.448;2022-08-06T03:22:19;13.70;99.90
59041;DHT22;44825;53.200;6.448;2022-08-06T03:24:47;13.70;99.90
59041;DHT22;44825;53.200;6.448;2022-08-06T03:27:16;13.70;99.90
59041;DHT22;44825;53.200;6.448;2022-08-06T03:29:44;13.70;99.90
59041;DHT22;44825;53.200;6.448;2022-08-06T03:32:13;13.70;99.90
59041;DHT22;44825;53.200;6.448;2022-08-06T03:34:42;13.60;99.90
59041;DHT22;44825;53.200;6.448;2022-08-06T03:37:10;13.60;99.90
59041;DHT22;44825;53.200;6.448;2022-08-06T03:39:41;13.60;99.90
59041;DHT22;44825;53.200;6.448;2022-08-06T03:42:09;13.50;99.90
59041;DHT22;44825;53.200;6.448;2022-08-06T03:44:36;13.50;99.90
59041;DHT22;44825;53.200;6.448;2022-08-06T03:47:06;13.50;99.90
59041;DHT22;44825;53.200;6.448;2022-08-06T03:49:37;13.50;99.90
59041;DHT22;44825;53.200;6.448;2022-08-06T03:52:06;13.50;99.90
59041;DHT22;44825;53.200;6.448;2022-08-06T03:54:40;13.50;99.90
59041;DHT22;44825;53.200;6.448;2022-08-06T03:57:11;13.50;99.90
59041;DHT22;44825;53.200;6.448;2022-08-06T03:59:42;13.50;99.90
59041;DHT22;44825;53.200;6.448;2022-08-06T04:02:11;13.50;99.90
59041;DHT22;44825;53.200;6.448;2022-08-06T04:04:42;13.60;99.90
59041;DHT22;44825;53.200;6.448;2022-08-06T04:07:09;13.60;99.90
59041;DHT22;44825;53.200;6.448;2022-08-06T04:09:39;13.60;99.90
59041;DHT22;44825;53.200;6.448;2022-08-06T04:12:08;13.60;99.90
59041;DHT22;44825;53.200;6.448;2022-08-06T04:14:36;13.60;99.90
59041;DHT22;44825;53.200;6.448;2022-08-06T04:17:04;13.60;99.90
59041;DHT22;44825;53.200;6.448;2022-08-06T04:19:33;13.70;99.90
59041;DHT22;44825;53.200;6.448;2022-08-06T04:22:02;13.70;99.90
59041;DHT22;44825;53.200;6.448;2022-08-06T04:24:30;13.70;99.90
59041;DHT22;44825;53.200;6.448;2022-08-06T04:26:59;13.80;99.90
59041;DHT22;44825;53.200;6.448;2022-08-06T04:29:28;13.80;99.90
59041;DHT22;44825;53.200;6.448;2022-08-06T04:31:58;13.90;99.90
59041;DHT22;44825;53.200;6.448;2022-08-06T04:34:27;14.00;99.90
59041;DHT22;44825;53.200;6.448;2022-08-06T04:36:59;14.00;99.90
59041;DHT22;44825;53.200;6.448;2022-08-06T04:39:28;14.10;99.90
59041;DHT22;44825;53.200;6.448;2022-08-06T04:41:57;14.10;99.90
59041;DHT22;44825;53.200;6.448;2022-08-06T04:44:25;14.10;99.90
59041;DHT22;44825;53.200;6.448;2022-08-06T04:46:54;14.10;99.90
59041;DHT22;44825;53.200;6.448;2022-08-06T04:49:21;14.20;99.90
59041;DHT22;44825;53.200;6.448;2022-08-06T04:51:49;14.20;99.90
59041;DHT22;44825;53.200;6.448;2022-08-06T04:54:17;14.20;99.90
59041;DHT22;44825;53.200;6.448;2022-08-06T04:56:45;14.20;99.90
59041;DHT22;44825;53.200;6.448;2022-08-06T04:59:13;14.10;99.90
59041;DHT22;44825;53.200;6.448;2022-08-06T05:01:40;14.10;99.90
59041;DHT22;44825;53.200;6.448;2022-08-06T05:04:07;14.10;99.90
59041;DHT22;44825;53.200;6.448;2022-08-06T05:06:43;14.10;99.90
59041;DHT22;44825;53.200;6.448;2022-08-06T05:09:15;14.10;99.90
59041;DHT22;44825;53.200;6.448;2022-08-06T05:11:48;14.10;99.90
59041;DHT22;44825;53.200;6.448;2022-08-06T05:14:22;14.10;99.90
59041;DHT22;44825;53.200;6.448;2022-08-06T05:16:51;14.00;99.90
59041;DHT22;44825;53.200;6.448;2022-08-06T05:19:23;14.00;99.90
59041;DHT22;44825;53.200;6.448;2022-08-06T05:21:52;14.00;99.90
59041;DHT22;44825;53.200;6.448;2022-08-06T05:24:20;14.10;99.90
59041;DHT22;44825;53.200;6.448;2022-08-06T05:26:49;14.10;99.90
59041;DHT22;44825;53.200;6.448;2022-08-06T05:29:20;14.30;99.90
59041;DHT22;44825;53.200;6.448;2022-08-06T05:31:48;14.60;99.90
59041;DHT22;44825;53.200;6.448;2022-08-06T05:34:15;14.90;99.90
59041;DHT22;44825;53.200;6.448;2022-08-06T05:36:42;15.00;99.90
59041;DHT22;44825;53.200;6.448;2022-08-06T05:39:10;14.90;99.90
59041;DHT22;44825;53.200;6.448;2022-08-06T05:41:37;14.90;99.90
59041;DHT22;44825;53.200;6.448;2022-08-06T05:44:06;14.90;99.90
59041;DHT22;44825;53.200;6.448;2022-08-06T05:46:35;14.80;99.90
59041;DHT22;44825;53.200;6.448;2022-08-06T05:49:07;14.80;99.90
59041;DHT22;44825;53.200;6.448;2022-08-06T05:51:42;14.70;99.90
59041;DHT22;44825;53.200;6.448;2022-08-06T05:54:15;14.60;99.90
59041;DHT22;44825;53.200;6.448;2022-08-06T05:56:46;14.60;99.90
59041;DHT22;44825;53.200;6.448;2022-08-06T05:59:21;14.60;99.90
59041;DHT22;44825;53.200;6.448;2022-08-06T06:01:49;14.50;99.90
59041;DHT22;44825;53.200;6.448;2022-08-06T06:04:18;14.50;99.90
59041;DHT22;44825;53.200;6.448;2022-08-06T06:06:46;14.60;99.90
59041;DHT22;44825;53.200;6.448;2022-08-06T06:09:14;14.70;99.90
59041;DHT22;44825;53.200;6.448;2022-08-06T06:11:42;14.90;99.90
59041;DHT22;44825;53.200;6.448;2022-08-06T06:14:37;15.20;99.90
59041;DHT22;44825;53.200;6.448;2022-08-06T06:20:11;15.80;99.90
59041;DHT22;44825;53.200;6.448;2022-08-06T06:22:44;16.10;99.90
59041;DHT22;44825;53.200;6.448;2022-08-06T06:25:17;16.30;99.90
59041;DHT22;44825;53.200;6.448;2022-08-06T06:27:52;16.40;99.90
59041;DHT22;44825;53.200;6.448;2022-08-06T06:30:25;16.50;99.90
59041;DHT22;44825;53.200;6.448;2022-08-06T06:32:58;16.60;99.90
59041;DHT22;44825;53.200;6.448;2022-08-06T06:35:32;16.60;99.90
59041;DHT22;44825;53.200;6.448;2022-08-06T06:38:12;16.60;99.90
59041;DHT22;44825;53.200;6.448;2022-08-06T06:40:48;16.50;99.90
59041;DHT22;44825;53.200;6.448;2022-08-06T06:43:20;16.50;99.90
59041;DHT22;44825;53.200;6.448;2022-08-06T06:45:57;16.50;99.90
59041;DHT22;44825;53.200;6.448;2022-08-06T06:48:30;16.50;99.90
59041;DHT22;44825;53.200;6.448;2022-08-06T06:51:03;16.40;99.90
59041;DHT22;44825;53.200;6.448;2022-08-06T06:53:35;16.50;99.90
59041;DHT22;44825;53.200;6.448;2022-08-06T06:56:04;16.60;99.90
59041;DHT22;44825;53.200;6.448;2022-08-06T06:58:35;16.80;99.90
59041;DHT22;44825;53.200;6.448;2022-08-06T07:01:06;17.00;99.90
59041;DHT22;44825;53.200;6.448;2022-08-06T07:03:37;17.10;99.90
59041;DHT22;44825;53.200;6.448;2022-08-06T07:06:07;17.20;99.90
59041;DHT22;44825;53.200;6.448;2022-08-06T07:08:38;17.40;99.90
59041;DHT22;44825;53.200;6.448;2022-08-06T07:11:11;17.50;99.90
59041;DHT22;44825;53.200;6.448;2022-08-06T07:13:40;17.60;99.90
59041;DHT22;44825;53.200;6.448;2022-08-06T07:16:11;17.70;99.90
59041;DHT22;44825;53.200;6.448;2022-08-06T07:18:39;17.80;99.90
59041;DHT22;44825;53.200;6.448;2022-08-06T07:21:07;17.90;99.90
59041;DHT22;44825;53.200;6.448;2022-08-06T07:23:35;18.00;99.90
59041;DHT22;44825;53.200;6.448;2022-08-06T07:26:05;18.10;99.80
59041;DHT22;44825;53.200;6.448;2022-08-06T07:28:34;18.20;99.40
59041;DHT22;44825;53.200;6.448;2022-08-06T07:31:02;18.30;98.80
59041;DHT22;44825;53.200;6.448;2022-08-06T07:33:32;18.40;98.70
59041;DHT22;44825;53.200;6.448;2022-08-06T07:36:00;18.40;98.60
59041;DHT22;44825;53.200;6.448;2022-08-06T07:38:27;18.50;98.70
59041;DHT22;44825;53.200;6.448;2022-08-06T07:40:57;18.60;98.60
59041;DHT22;44825;53.200;6.448;2022-08-06T07:43:26;18.70;98.40
59041;DHT22;44825;53.200;6.448;2022-08-06T07:45:54;18.80;97.70
59041;DHT22;44825;53.200;6.448;2022-08-06T07:48:23;18.90;97.50
59041;DHT22;44825;53.200;6.448;2022-08-06T07:50:52;18.90;97.00
59041;DHT22;44825;53.200;6.448;2022-08-06T07:53:20;18.80;96.40
59041;DHT22;44825;53.200;6.448;2022-08-06T07:55:48;18.70;96.10
59041;DHT22;44825;53.200;6.448;2022-08-06T07:58:15;18.70;96.00
59041;DHT22;44825;53.200;6.448;2022-08-06T08:00:44;18.80;96.20
59041;DHT22;44825;53.200;6.448;2022-08-06T08:03:14;18.90;95.50
59041;DHT22;44825;53.200;6.448;2022-08-06T08:06:02;18.80;94.90
59041;DHT22;44825;53.200;6.448;2022-08-06T08:08:45;18.70;94.80
59041;DHT22;44825;53.200;6.448;2022-08-06T08:11:14;18.60;95.20
59041;DHT22;44825;53.200;6.448;2022-08-06T08:13:42;18.50;94.90
59041;DHT22;44825;53.200;6.448;2022-08-06T08:16:13;18.50;95.50
59041;DHT22;44825;53.200;6.448;2022-08-06T08:18:40;18.70;96.10
59041;DHT22;44825;53.200;6.448;2022-08-06T08:21:10;18.80;95.90
59041;DHT22;44825;53.200;6.448;2022-08-06T08:23:39;18.80;95.40
59041;DHT22;44825;53.200;6.448;2022-08-06T08:26:07;18.70;95.00
59041;DHT22;44825;53.200;6.448;2022-08-06T08:28:36;18.70;94.70
59041;DHT22;44825;53.200;6.448;2022-08-06T08:31:03;18.60;94.20
59041;DHT22;44825;53.200;6.448;2022-08-06T08:33:32;18.50;94.10
59041;DHT22;44825;53.200;6.448;2022-08-06T08:36:00;18.40;94.20
59041;DHT22;44825;53.200;6.448;2022-08-06T08:38:31;18.30;94.20
59041;DHT22;44825;53.200;6.448;2022-08-06T08:41:01;18.30;94.30
59041;DHT22;44825;53.200;6.448;2022-08-06T08:43:34;18.20;94.70
59041;DHT22;44825;53.200;6.448;2022-08-06T08:46:04;18.20;95.10
59041;DHT22;44825;53.200;6.448;2022-08-06T08:48:35;18.20;95.30
59041;DHT22;44825;53.200;6.448;2022-08-06T08:51:03;18.20;95.30
59041;DHT22;44825;53.200;6.448;2022-08-06T08:53:43;18.20;95.30
59041;DHT22;44825;53.200;6.448;2022-08-06T08:56:11;18.20;95.30
59041;DHT22;44825;53.200;6.448;2022-08-06T08:58:40;18.10;95.40
59041;DHT22;44825;53.200;6.448;2022-08-06T09:01:08;18.10;96.20
59041;DHT22;44825;53.200;6.448;2022-08-06T09:03:38;18.00;96.90
59041;DHT22;44825;53.200;6.448;2022-08-06T09:06:07;18.00;97.60
59041;DHT22;44825;53.200;6.448;2022-08-06T09:08:36;17.90;98.30
59041;DHT22;44825;53.200;6.448;2022-08-06T09:11:04;17.90;98.50
59041;DHT22;44825;53.200;6.448;2022-08-06T09:13:32;17.90;99.00
59041;DHT22;44825;53.200;6.448;2022-08-06T09:16:00;17.90;99.10
59041;DHT22;44825;53.200;6.448;2022-08-06T09:18:28;17.90;99.10
59041;DHT22;44825;53.200;6.448;2022-08-06T09:20:55;17.90;99.10
59041;DHT22;44825;53.200;6.448;2022-08-06T09:23:23;18.00;99.40
59041;DHT22;44825;53.200;6.448;2022-08-06T09:25:52;18.10;99.60
59041;DHT22;44825;53.200;6.448;2022-08-06T09:28:34;18.30;99.90
59041;DHT22;44825;53.200;6.448;2022-08-06T09:31:04;18.70;99.50
59041;DHT22;44825;53.200;6.448;2022-08-06T09:33:34;19.00;98.20
59041;DHT22;44825;53.200;6.448;2022-08-06T09:36:04;19.40;97.80
59041;DHT22;44825;53.200;6.448;2022-08-06T09:38:44;19.60;97.10
59041;DHT22;44825;53.200;6.448;2022-08-06T09:41:14;19.70;95.60
59041;DHT22;44825;53.200;6.448;2022-08-06T09:43:43;19.90;95.70
59041;DHT22;44825;53.200;6.448;2022-08-06T09:46:11;20.00;94.50
59041;DHT22;44825;53.200;6.448;2022-08-06T09:48:55;20.10;93.60
59041;DHT22;44825;53.200;6.448;2022-08-06T09:51:23;20.20;93.30
59041;DHT22;44825;53.200;6.448;2022-08-06T09:53:53;20.20;92.50
59041;DHT22;44825;53.200;6.448;2022-08-06T09:56:23;20.30;91.50
59041;DHT22;44825;53.200;6.448;2022-08-06T09:58:56;20.40;91.30
59041;DHT22;44825;53.200;6.448;2022-08-06T10:01:24;20.60;90.70
59041;DHT22;44825;53.200;6.448;2022-08-06T10:03:54;20.60;90.40
59041;DHT22;44825;53.200;6.448;2022-08-06T10:06:22;20.80;90.40
59041;DHT22;44825;53.200;6.448;2022-08-06T10:08:50;21.00;88.60
59041;DHT22;44825;53.200;6.448;2022-08-06T10:11:36;21.00;86.70
59041;DHT22;44825;53.200;6.448;2022-08-06T10:14:03;20.80;83.90
59041;DHT22;44825;53.200;6.448;2022-08-06T10:16:31;20.50;83.20
59041;DHT22;44825;53.200;6.448;2022-08-06T10:18:59;20.30;83.50
59041;DHT22;44825;53.200;6.448;2022-08-06T10:21:31;20.10;84.80
59041;DHT22;44825;53.200;6.448;2022-08-06T10:24:01;20.10;86.50
59041;DHT22;44825;53.200;6.448;2022-08-06T10:26:30;20.20;87.50
59041;DHT22;44825;53.200;6.448;2022-08-06T10:29:04;20.30;85.60
59041;DHT22;44825;53.200;6.448;2022-08-06T10:31:31;20.10;84.20
59041;DHT22;44825;53.200;6.448;2022-08-06T10:34:00;20.00;83.70
59041;DHT22;44825;53.200;6.448;2022-08-06T10:36:34;19.90;84.60
59041;DHT22;44825;53.200;6.448;2022-08-06T10:39:02;19.80;84.40
59041;DHT22;44825;53.200;6.448;2022-08-06T10:41:30;19.90;83.30
59041;DHT22;44825;53.200;6.448;2022-08-06T10:44:02;19.90;82.90
59041;DHT22;44825;53.200;6.448;2022-08-06T10:46:31;19.90;84.20
59041;DHT22;44825;53.200;6.448;2022-08-06T10:49:01;20.00;85.00
59041;DHT22;44825;53.200;6.448;2022-08-06T10:51:29;19.90;83.70
59041;DHT22;44825;53.200;6.448;2022-08-06T10:53:57;19.80;83.40
59041;DHT22;44825;53.200;6.448;2022-08-06T10:56:25;19.80;84.60
59041;DHT22;44825;53.200;6.448;2022-08-06T10:58:54;19.70;84.40
59041;DHT22;44825;53.200;6.448;2022-08-06T11:01:28;19.80;84.40
59041;DHT22;44825;53.200;6.448;2022-08-06T11:04:15;19.90;83.20
59041;DHT22;44825;53.200;6.448;2022-08-06T11:07:15;20.20;83.00
59041;DHT22;44825;53.200;6.448;2022-08-06T11:09:52;20.50;79.50
59041;DHT22;44825;53.200;6.448;2022-08-06T11:12:34;20.60;78.00
59041;DHT22;44825;53.200;6.448;2022-08-06T11:15:05;20.50;78.70
59041;DHT22;44825;53.200;6.448;2022-08-06T11:17:45;20.50;77.30
59041;DHT22;44825;53.200;6.448;2022-08-06T11:20:36;20.40;76.30
59041;DHT22;44825;53.200;6.448;2022-08-06T11:23:22;20.30;77.20
59041;DHT22;44825;53.200;6.448;2022-08-06T11:25:51;20.40;76.70
59041;DHT22;44825;53.200;6.448;2022-08-06T11:28:20;20.50;76.90
59041;DHT22;44825;53.200;6.448;2022-08-06T11:30:50;20.60;76.20
59041;DHT22;44825;53.200;6.448;2022-08-06T11:33:20;20.60;75.10
59041;DHT22;44825;53.200;6.448;2022-08-06T11:35:48;20.60;74.60
59041;DHT22;44825;53.200;6.448;2022-08-06T11:41:44;20.40;72.60
59041;DHT22;44825;53.200;6.448;2022-08-06T11:44:14;20.30;74.00
59041;DHT22;44825;53.200;6.448;2022-08-06T11:46:44;20.20;74.00
59041;DHT22;44825;53.200;6.448;2022-08-06T11:49:21;20.20;74.70
59041;DHT22;44825;53.200;6.448;2022-08-06T11:51:51;20.30;74.90
59041;DHT22;44825;53.200;6.448;2022-08-06T11:54:20;20.40;74.90
59041;DHT22;44825;53.200;6.448;2022-08-06T11:57:19;20.40;75.30
59041;DHT22;44825;53.200;6.448;2022-08-06T12:00:04;20.50;76.20
59041;DHT22;44825;53.200;6.448;2022-08-06T12:02:56;20.70;75.10
59041;DHT22;44825;53.200;6.448;2022-08-06T12:05:36;20.90;75.80
59041;DHT22;44825;53.200;6.448;2022-08-06T12:08:19;20.90;74.70
59041;DHT22;44825;53.200;6.448;2022-08-06T12:11:21;20.80;73.40
59041;DHT22;44825;53.200;6.448;2022-08-06T12:13:52;20.80;73.20
59041;DHT22;44825;53.200;6.448;2022-08-06T12:16:43;20.80;72.90
59041;DHT22;44825;53.200;6.448;2022-08-06T12:19:13;20.70;72.20
59041;DHT22;44825;53.200;6.448;2022-08-06T12:21:42;20.70;72.80
59041;DHT22;44825;53.200;6.448;2022-08-06T12:24:11;20.70;73.40
59041;DHT22;44825;53.200;6.448;2022-08-06T12:26:39;20.70;73.80
59041;DHT22;44825;53.200;6.448;2022-08-06T12:29:07;20.70;73.20
59041;DHT22;44825;53.200;6.448;2022-08-06T12:31:38;20.70;72.20
59041;DHT22;44825;53.200;6.448;2022-08-06T12:34:06;20.70;71.70
59041;DHT22;44825;53.200;6.448;2022-08-06T12:36:35;20.80;69.60
59041;DHT22;44825;53.200;6.448;2022-08-06T12:39:07;20.70;68.10
59041;DHT22;44825;53.200;6.448;2022-08-06T12:41:40;20.70;69.30
59041;DHT22;44825;53.200;6.448;2022-08-06T12:44:12;20.70;69.00
59041;DHT22;44825;53.200;6.448;2022-08-06T12:46:39;20.70;69.90
59041;DHT22;44825;53.200;6.448;2022-08-06T12:49:07;20.80;69.90
59041;DHT22;44825;53.200;6.448;2022-08-06T12:51:36;20.80;70.20
59041;DHT22;44825;53.200;6.448;2022-08-06T12:54:07;20.90;69.30
59041;DHT22;44825;53.200;6.448;2022-08-06T12:56:39;20.90;68.80
59041;DHT22;44825;53.200;6.448;2022-08-06T12:59:09;20.90;68.50
59041;DHT22;44825;53.200;6.448;2022-08-06T13:01:37;20.90;69.80
59041;DHT22;44825;53.200;6.448;2022-08-06T13:04:07;21.00;68.90
59041;DHT22;44825;53.200;6.448;2022-08-06T13:06:37;21.00;68.80
59041;DHT22;44825;53.200;6.448;2022-08-06T13:09:06;21.00;68.90
59041;DHT22;44825;53.200;6.448;2022-08-06T13:11:34;20.90;68.50
59041;DHT22;44825;53.200;6.448;2022-08-06T13:14:10;20.90;69.40
59041;DHT22;44825;53.200;6.448;2022-08-06T13:16:39;20.80;68.40
59041;DHT22;44825;53.200;6.448;2022-08-06T13:19:09;20.80;68.60
59041;DHT22;44825;53.200;6.448;2022-08-06T13:21:37;20.60;68.10
59041;DHT22;44825;53.200;6.448;2022-08-06T13:24:08;20.70;68.40
59041;DHT22;44825;53.200;6.448;2022-08-06T13:26:50;20.70;67.80
59041;DHT22;44825;53.200;6.448;2022-08-06T13:29:20;20.70;69.00
59041;DHT22;44825;53.200;6.448;2022-08-06T13:32:02;20.70;69.50
59041;DHT22;44825;53.200;6.448;2022-08-06T13:34:44;20.80;69.70
59041;DHT22;44825;53.200;6.448;2022-08-06T13:37:12;20.80;69.40
59041;DHT22;44825;53.200;6.448;2022-08-06T13:39:50;20.80;69.60
59041;DHT22;44825;53.200;6.448;2022-08-06T13:42:18;20.70;69.50
59041;DHT22;44825;53.200;6.448;2022-08-06T13:44:46;20.70;68.80
59041;DHT22;44825;53.200;6.448;2022-08-06T13:47:14;20.60;69.20
59041;DHT22;44825;53.200;6.448;2022-08-06T13:49:52;20.60;70.30
59041;DHT22;44825;53.200;6.448;2022-08-06T13:52:19;20.60;70.90
59041;DHT22;44825;53.200;6.448;2022-08-06T13:54:46;20.60;71.10
59041;DHT22;44825;53.200;6.448;2022-08-06T13:57:15;20.70;71.20
59041;DHT22;44825;53.200;6.448;2022-08-06T13:59:43;20.70;71.30
59041;DHT22;44825;53.200;6.448;2022-08-06T14:02:11;20.70;70.60
59041;DHT22;44825;53.200;6.448;2022-08-06T14:04:38;20.70;69.90
59041;DHT22;44825;53.200;6.448;2022-08-06T14:07:06;20.60;70.80
59041;DHT22;44825;53.200;6.448;2022-08-06T14:09:33;20.70;71.50
59041;DHT22;44825;53.200;6.448;2022-08-06T14:12:01;20.70;72.10
59041;DHT22;44825;53.200;6.448;2022-08-06T14:14:34;20.70;72.60
59041;DHT22;44825;53.200;6.448;2022-08-06T14:17:01;20.70;71.90
59041;DHT22;44825;53.200;6.448;2022-08-06T14:19:29;20.70;71.00
59041;DHT22;44825;53.200;6.448;2022-08-06T14:21:56;20.60;71.30
59041;DHT22;44825;53.200;6.448;2022-08-06T14:24:23;20.50;72.80
59041;DHT22;44825;53.200;6.448;2022-08-06T14:26:51;20.50;72.60
59041;DHT22;44825;53.200;6.448;2022-08-06T14:29:18;20.40;71.90
59041;DHT22;44825;53.200;6.448;2022-08-06T14:31:47;20.30;71.90
59041;DHT22;44825;53.200;6.448;2022-08-06T14:34:16;20.30;72.20
59041;DHT22;44825;53.200;6.448;2022-08-06T14:36:43;20.20;72.00
59041;DHT22;44825;53.200;6.448;2022-08-06T14:39:11;20.20;71.90
59041;DHT22;44825;53.200;6.448;2022-08-06T14:41:39;20.30;72.50
59041;DHT22;44825;53.200;6.448;2022-08-06T14:44:24;20.30;72.80
59041;DHT22;44825;53.200;6.448;2022-08-06T14:47:11;20.30;73.80
59041;DHT22;44825;53.200;6.448;2022-08-06T14:49:38;20.30;73.50
59041;DHT22;44825;53.200;6.448;2022-08-06T14:52:06;20.30;73.80
59041;DHT22;44825;53.200;6.448;2022-08-06T14:54:34;20.30;74.40
59041;DHT22;44825;53.200;6.448;2022-08-06T14:57:03;20.30;74.30
59041;DHT22;44825;53.200;6.448;2022-08-06T14:59:31;20.20;74.40
59041;DHT22;44825;53.200;6.448;2022-08-06T15:01:58;20.20;74.90
59041;DHT22;44825;53.200;6.448;2022-08-06T15:04:27;20.20;76.00
59041;DHT22;44825;53.200;6.448;2022-08-06T15:06:55;20.20;76.90
59041;DHT22;44825;53.200;6.448;2022-08-06T15:09:22;20.30;76.20
59041;DHT22;44825;53.200;6.448;2022-08-06T15:11:50;20.30;75.20
59041;DHT22;44825;53.200;6.448;2022-08-06T15:14:17;20.20;75.80
59041;DHT22;44825;53.200;6.448;2022-08-06T15:16:44;20.30;77.10
59041;DHT22;44825;53.200;6.448;2022-08-06T15:19:12;20.30;77.70
59041;DHT22;44825;53.200;6.448;2022-08-06T15:21:40;20.40;77.80
59041;DHT22;44825;53.200;6.448;2022-08-06T15:24:08;20.40;77.50
59041;DHT22;44825;53.200;6.448;2022-08-06T15:26:35;20.40;77.50
59041;DHT22;44825;53.200;6.448;2022-08-06T15:29:03;20.40;77.60
59041;DHT22;44825;53.200;6.448;2022-08-06T15:31:30;20.40;77.40
59041;DHT22;44825;53.200;6.448;2022-08-06T15:33:57;20.30;76.90
59041;DHT22;44825;53.200;6.448;2022-08-06T15:36:25;20.30;77.30
59041;DHT22;44825;53.200;6.448;2022-08-06T15:38:53;20.30;77.60
59041;DHT22;44825;53.200;6.448;2022-08-06T15:41:23;20.30;77.20
59041;DHT22;44825;53.200;6.448;2022-08-06T15:43:53;20.30;77.40
59041;DHT22;44825;53.200;6.448;2022-08-06T15:46:20;20.30;77.70
59041;DHT22;44825;53.200;6.448;2022-08-06T15:48:47;20.30;78.20
59041;DHT22;44825;53.200;6.448;2022-08-06T15:51:15;20.30;78.30
59041;DHT22;44825;53.200;6.448;2022-08-06T15:53:48;20.20;78.70
59041;DHT22;44825;53.200;6.448;2022-08-06T15:56:17;20.20;79.30
59041;DHT22;44825;53.200;6.448;2022-08-06T15:58:45;20.20;79.00